Terminal Aerodrome Forecast
Issued by NWS

Current Version | Previous Version | Text Only | Print | Product List | Glossary Off
Versions: 1 2 3 4 5 6 7 8 9 10 11 12 13 14 15 16 17 18 19

000
FTUS41 KPBZ 171739
TAFHLG
TAF
KHLG 171739Z 1718/1818 20018G24KT P6SM VCSH OVC013 WS020/24035KT
     FM172030 24012G20KT P6SM VCSH BKN020 WS020/24035KT
     FM172130 25012G20KT P6SM BKN025
     FM180200 25008KT P6SM OVC015
     FM181000 27010KT 4SM -SHRA BR BKN008
     FM181700 27011KT P6SM OVC015=

USA.gov is the U.S. government's official web portal to all federal, state and local government web resources and services.